الصفحة الرئيسية
METAR-TAF:

METAR-TAF

مطار :

مطار ويلينغتون الدولي

ويلينغتون, نيوزيلندا

دائرة عرض: 41-20S, خط طول: 174-48E, ارتفاع: 12 متر

مراقبة الطقس الحالي

تاريخ ووقت الإصدار 35 دقيقة قبل الساعة 03:30UTC
ريح 11 عقدة من الجنوب/الجنوب الشرقي
درجة الحرارة 12°درجة مئوية
الرطوبة 71%
ضغط 1023 hPa
الرؤية 10 كم أو أكثر

METAR: NZWN 270330Z AUTO 16011KT 9999 NCD 12/07 Q1023 NOSIG

زمن: 16:05 (04:05 UTC)

توقعات

تاريخ ووقت الإصدار 5ساعات و 3 دقيقة قبل الساعة 23:02UTC
التوقعات صالحة من27 الساعة 00 UTC إلى 28 الساعة 00 UTC
ريح 15 عقدة من الجنوب
الرؤية 10 كم أو أكثر
غيوم متفرقة على ارتفاع 2500 قدم
أصبح
من 27 الساعة 10 UTC إلى 27 الساعة 12 UTC
ريح 5 عقدة من الجنوب/الجنوب الشرقي
مؤقت
من 27 الساعة 10 UTC إلى 27 الساعة 16 UTC
غيوم مفككة على ارتفاع 1400 قدم

TAF: NZWN 262302Z 2700/2800 18015KT 9999 SCT025 BECMG 2710/2712 16005KT TEMPO 2710/2716 BKN014

أرصاد الطقس والتوقعات من أكثر من 4000 مطار (تقارير الطقس للمطار METAR والتنبؤ بالطقس بالمطارTAF).

المحطات المتاحة هي النقط الصفراء والحمراء على الخريطة.

حرك المؤشر فوق النقطة لمعرفة اسم المحطة.

ثم انقر لمعرفة أرصاد وتوقعات الطقس.

لتغيير الخارطة: اضغط على الأزرار الخضراء مع رمز الصليب الأسود للتكبير. على الزر الأخضر مع شرطة للتصغير، أو على الأسهم الخضراء للخرائط المجاورة.


METAR-TAF: